Time;durP1;ratioP1;P1;durP2;ratioP2;P2;SDS_P1;SDS_P2;PMS_P1;PMS_P2;Temp;Humidity;BMP_temperature;BMP_pressure;BME280_temperature;BME280_humidity;BME280_pressure;Samples;Min_cycle;Max_cycle;Signal;HPM_P1;HPM_P2
2022/02/22 00:01:06;;;;;;;8.30;2.13;;;9.10;72.50;;;;;;20760568;28;20458;-77
2022/02/22 00:11:07;;;;;;;3.70;0.73;;;9.10;72.50;;;;;;20797903;28;20491;-78
2022/02/22 00:21:08;;;;;;;5.63;0.90;;;9.10;72.70;;;;;;20808305;28;20037;-78
2022/02/22 00:31:08;;;;;;;7.22;1.75;;;9.00;72.70;;;;;;20774507;28;20129;-77
2022/02/22 00:41:09;;;;;;;4.03;0.95;;;9.00;72.70;;;;;;20805803;28;20030;-78
2022/02/22 00:51:09;;;;;;;4.70;1.00;;;9.00;73.40;;;;;;20789332;28;20076;-78
2022/02/22 01:01:14;;;;;;;6.35;1.35;;;9.10;72.90;;;;;;20805979;28;20045;-78
2022/02/22 01:11:14;;;;;;;5.65;0.88;;;9.00;73.50;;;;;;20809394;28;20041;-78
2022/02/22 01:21:15;;;;;;;9.95;1.27;;;9.10;72.90;;;;;;20816719;28;20037;-78
2022/02/22 01:31:15;;;;;;;1.67;0.60;;;9.00;72.80;;;;;;20837272;28;20095;-77
2022/02/22 01:41:16;;;;;;;11.82;1.75;;;9.00;72.80;;;;;;20801543;28;20033;-78
2022/02/22 01:51:17;;;;;;;9.85;1.30;;;9.00;72.70;;;;;;20800587;28;20072;-78
2022/02/22 02:01:18;;;;;;;8.50;2.60;;;9.00;72.70;;;;;;20816313;28;20144;-78
2022/02/22 02:11:18;;;;;;;7.82;1.60;;;9.00;72.60;;;;;;20815641;28;20497;-77
2022/02/22 02:21:19;;;;;;;9.57;2.67;;;9.00;72.50;;;;;;20814944;28;20482;-77
2022/02/22 02:31:19;;;;;;;8.38;1.70;;;9.00;72.40;;;;;;20813659;28;20464;-77
2022/02/22 02:41:20;;;;;;;7.93;1.80;;;9.00;72.30;;;;;;20780852;28;20057;-77
2022/02/22 02:51:22;;;;;;;8.35;2.60;;;9.00;72.20;;;;;;20796806;28;20033;-77
2022/02/22 03:01:23;;;;;;;8.40;2.05;;;9.00;72.10;;;;;;20764091;28;20128;-76
2022/02/22 03:11:23;;;;;;;9.10;1.70;;;9.00;72.00;;;;;;20779526;28;20498;-76
2022/02/22 03:21:24;;;;;;;10.98;2.60;;;8.90;71.90;;;;;;20794537;28;20049;-76
2022/02/22 03:31:25;;;;;;;7.10;1.67;;;9.00;71.90;;;;;;20771849;28;20142;-76
2022/02/22 03:41:27;;;;;;;10.43;1.95;;;9.00;71.70;;;;;;20793458;28;20095;-77
2022/02/22 03:51:27;;;;;;;6.50;1.42;;;9.00;72.30;;;;;;20777661;28;20080;-78
2022/02/22 04:01:28;;;;;;;9.73;1.83;;;8.90;71.50;;;;;;20792497;28;20125;-78
2022/02/22 04:11:29;;;;;;;5.88;1.73;;;8.90;71.40;;;;;;20792361;28;20037;-77
2022/02/22 04:21:29;;;;;;;4.78;1.13;;;8.90;71.40;;;;;;20776559;28;20087;-77
2022/02/22 04:31:38;;;;;;;9.88;1.38;;;8.90;71.40;;;;;;20759864;28;20327;-77
2022/02/22 04:41:38;;;;;;;3.75;1.15;;;8.90;71.40;;;;;;20794552;28;20076;-77
2022/02/22 04:51:40;;;;;;;6.32;1.85;;;8.90;71.30;;;;;;20775033;28;20498;-77
2022/02/22 05:01:41;;;;;;;6.05;1.90;;;9.00;71.30;;;;;;20801310;28;20048;-77
2022/02/22 05:11:41;;;;;;;5.13;1.30;;;8.90;71.30;;;;;;20806077;28;20033;-80
2022/02/22 05:21:43;;;;;;;8.15;2.47;;;8.90;71.30;;;;;;20811151;28;20129;-77
2022/02/22 05:31:43;;;;;;;5.72;2.28;;;8.90;71.20;;;;;;20804968;28;20037;-75
2022/02/22 05:41:44;;;;;;;6.43;1.30;;;8.90;71.20;;;;;;20814248;28;20025;-78
2022/02/22 05:51:45;;;;;;;4.22;1.73;;;8.90;71.00;;;;;;20781521;28;20037;-75
2022/02/22 06:01:45;;;;;;;5.88;1.25;;;8.90;70.90;;;;;;20774720;28;20068;-76
2022/02/22 06:11:46;;;;;;;11.50;1.80;;;8.90;70.80;;;;;;20806074;28;20063;-75
2022/02/22 06:21:46;;;;;;;3.75;1.40;;;9.00;70.70;;;;;;20799056;28;20030;-74
2022/02/22 06:31:48;;;;;;;6.88;1.33;;;9.00;70.50;;;;;;20782746;28;20159;-77
2022/02/22 06:41:49;;;;;;;6.15;1.25;;;9.00;70.50;;;;;;20784953;28;20600;-74
2022/02/22 06:51:50;;;;;;;7.45;2.55;;;9.00;70.50;;;;;;20811258;28;20076;-73
2022/02/22 07:01:50;;;;;;;4.72;1.60;;;9.00;70.40;;;;;;20778457;28;20033;-74
2022/02/22 07:11:51;;;;;;;6.15;1.25;;;9.00;70.30;;;;;;20862507;28;20500;-74
2022/02/22 07:21:52;;;;;;;8.37;1.70;;;8.90;70.20;;;;;;20881232;28;20037;-73
2022/02/22 07:31:54;;;;;;;9.50;1.80;;;8.90;70.20;;;;;;20874376;28;20319;-74
2022/02/22 07:41:54;;;;;;;10.48;2.55;;;8.90;70.20;;;;;;20893182;28;20098;-73
2022/02/22 07:51:55;;;;;;;8.13;1.63;;;8.90;70.20;;;;;;20888896;28;20476;-74
2022/02/22 08:01:56;;;;;;;6.75;1.80;;;8.90;70.80;;;;;;20859629;28;20191;-74
2022/02/22 08:11:56;;;;;;;8.77;1.92;;;8.90;70.10;;;;;;20863989;28;20046;-74
2022/02/22 08:21:57;;;;;;;11.65;2.10;;;8.90;70.10;;;;;;20856336;28;20076;-73
2022/02/22 08:31:58;;;;;;;9.43;1.70;;;9.00;70.10;;;;;;20860848;28;20041;-73
2022/02/22 08:41:58;;;;;;;7.95;1.95;;;8.90;70.10;;;;;;20921981;28;20321;-72
2022/02/22 08:51:59;;;;;;;9.35;1.85;;;8.90;70.10;;;;;;20870601;28;20041;-72
2022/02/22 09:02:00;;;;;;;5.70;1.60;;;8.90;70.10;;;;;;20837463;28;20099;-72
2022/02/22 09:12:01;;;;;;;7.60;1.75;;;8.90;70.10;;;;;;20875522;28;20325;-72
2022/02/22 09:22:02;;;;;;;8.68;2.08;;;8.90;70.10;;;;;;20862359;28;20037;-74
2022/02/22 09:32:03;;;;;;;6.95;1.83;;;8.90;70.10;;;;;;20794589;28;20100;-75
2022/02/22 09:42:07;;;;;;;8.25;1.95;;;8.90;70.10;;;;;;20866118;28;20373;-74
2022/02/22 09:52:07;;;;;;;10.00;2.40;;;9.00;70.20;;;;;;20814142;28;20133;-74
2022/02/22 10:02:08;;;;;;;10.68;2.45;;;8.90;70.20;;;;;;20807033;28;20119;-75
2022/02/22 10:12:09;;;;;;;9.60;2.40;;;8.90;70.20;;;;;;20832051;28;20493;-76
2022/02/22 10:22:10;;;;;;;18.08;3.30;;;8.90;70.20;;;;;;20897352;28;20386;-76
2022/02/22 10:32:11;;;;;;;5.63;2.00;;;8.90;70.10;;;;;;20864551;28;20068;-77
2022/02/22 10:42:12;;;;;;;7.40;1.70;;;9.00;70.10;;;;;;20879254;28;20032;-78
2022/02/22 10:52:12;;;;;;;19.38;2.65;;;9.00;70.20;;;;;;20861987;28;20039;-79
2022/02/22 11:02:13;;;;;;;9.52;2.20;;;9.00;70.20;;;;;;20877441;28;20036;-78
2022/02/22 11:12:30;;;;;;;12.38;2.83;;;9.00;70.10;;;;;;20876884;28;20083;-75
2022/02/22 11:22:30;;;;;;;11.57;2.83;;;8.90;69.90;;;;;;21185318;23;20041;-78
2022/02/22 11:32:31;;;;;;;8.82;2.45;;;9.00;69.90;;;;;;20652583;28;20128;-75
2022/02/22 11:42:31;;;;;;;13.23;1.98;;;9.00;69.70;;;;;;20727597;28;20083;-77
2022/02/22 11:52:40;;;;;;;7.65;2.15;;;9.00;69.50;;;;;;20777760;28;20054;-80
2022/02/22 12:02:44;;;;;;;5.93;1.30;;;9.00;69.30;;;;;;20812636;28;20080;-80
2022/02/22 12:12:45;;;;;;;6.63;1.63;;;9.00;69.10;;;;;;20630374;28;20558;-73
2022/02/22 12:22:48;;;;;;;4.72;1.30;;;9.00;69.00;;;;;;20684500;28;20065;-73
2022/02/22 12:32:51;;;;;;;9.55;1.85;;;9.00;68.90;;;;;;20725119;28;20065;-73
2022/02/22 12:43:01;;;;;;;4.40;1.25;;;9.00;68.70;;;;;;20692323;28;20030;-72
2022/02/22 12:53:03;;;;;;;4.28;2.03;;;9.00;68.60;;;;;;20696810;28;20097;-74
2022/02/22 13:03:09;;;;;;;5.82;1.75;;;9.00;68.50;;;;;;20719043;28;20034;-74
2022/02/22 13:13:11;;;;;;;7.67;1.40;;;9.00;68.50;;;;;;20817628;28;20041;-75
2022/02/22 13:23:12;;;;;;;8.18;1.30;;;9.00;68.50;;;;;;20781933;28;20287;-75
2022/02/22 13:33:14;;;;;;;7.38;1.30;;;9.00;68.50;;;;;;20662269;28;20045;-78
2022/02/22 13:43:15;;;;;;;4.35;1.48;;;9.00;69.20;;;;;;20702337;28;20363;-76
2022/02/22 13:53:15;;;;;;;5.50;1.45;;;9.10;68.70;;;;;;20701108;28;20038;-78
2022/02/22 14:03:16;;;;;;;3.88;1.00;;;9.10;68.80;;;;;;20731704;28;20450;-78
2022/02/22 14:13:18;;;;;;;3.92;1.35;;;9.00;68.90;;;;;;20706120;28;20123;-77
2022/02/22 14:23:18;;;;;;;5.55;1.85;;;9.00;69.00;;;;;;20674678;28;20045;-77
2022/02/22 14:33:19;;;;;;;2.90;1.05;;;9.10;69.10;;;;;;20685049;28;20045;-80
2022/02/22 14:43:23;;;;;;;7.47;1.38;;;9.10;69.20;;;;;;20679762;28;20080;-80
2022/02/22 14:53:24;;;;;;;5.75;1.38;;;9.10;69.30;;;;;;20679598;28;20482;-85
2022/02/22 15:03:25;;;;;;;2.90;1.17;;;9.10;69.40;;;;;;20672040;28;20056;-81
2022/02/22 15:13:27;;;;;;;1.77;0.82;;;9.10;69.40;;;;;;20672773;28;20403;-83
2022/02/22 15:23:28;;;;;;;5.60;0.90;;;9.10;69.50;;;;;;20687961;28;20042;-78
2022/02/22 15:33:30;;;;;;;6.10;1.57;;;9.10;69.70;;;;;;20617291;28;20072;-77
2022/02/22 15:43:30;;;;;;;1.95;0.80;;;9.10;69.80;;;;;;20628229;28;20284;-77
2022/02/22 15:53:31;;;;;;;4.17;1.43;;;9.10;69.90;;;;;;20657724;28;20129;-77
2022/02/22 16:03:31;;;;;;;6.05;1.20;;;9.10;70.10;;;;;;20624581;28;20308;-80
2022/02/22 16:13:32;;;;;;;4.55;1.30;;;9.10;70.20;;;;;;20628513;28;20125;-76
2022/02/22 16:23:33;;;;;;;6.20;2.03;;;9.20;70.40;;;;;;20628855;28;20034;-79
2022/02/22 16:33:35;;;;;;;7.30;1.17;;;9.30;70.60;;;;;;20614068;28;20038;-78
2022/02/22 16:43:38;;;;;;;5.53;1.00;;;9.40;70.70;;;;;;20613064;28;20081;-75
2022/02/22 16:53:38;;;;;;;3.50;1.15;;;9.50;70.90;;;;;;20657177;28;20042;-70
2022/02/22 17:03:39;;;;;;;19.05;2.92;;;9.50;71.00;;;;;;20651295;28;20141;-76
2022/02/22 17:13:39;;;;;;;4.35;1.58;;;9.60;71.10;;;;;;20646890;28;20038;-72
2022/02/22 17:23:40;;;;;;;3.50;1.40;;;9.50;71.20;;;;;;20722667;28;20482;-72
2022/02/22 17:33:41;;;;;;;4.78;1.75;;;9.50;71.30;;;;;;20755287;28;20304;-72
2022/02/22 17:43:41;;;;;;;3.55;1.05;;;9.40;72.00;;;;;;20739249;28;20072;-73
2022/02/22 17:53:42;;;;;;;6.35;1.60;;;9.40;71.40;;;;;;20696646;28;20042;-75
2022/02/22 18:03:43;;;;;;;2.53;0.70;;;9.40;71.50;;;;;;20687992;28;20038;-77
2022/02/22 18:13:45;;;;;;;4.35;0.98;;;9.40;71.50;;;;;;20710173;28;20030;-74
2022/02/22 18:23:46;;;;;;;4.65;0.80;;;9.40;71.60;;;;;;20707692;28;20481;-74
2022/02/22 18:33:46;;;;;;;1.80;1.00;;;9.40;71.70;;;;;;20731000;28;20038;-72
2022/02/22 18:43:47;;;;;;;2.73;0.97;;;9.40;71.70;;;;;;20716424;28;20075;-71
2022/02/22 18:53:48;;;;;;;3.53;0.85;;;9.40;71.80;;;;;;20698342;28;20301;-77
2022/02/22 19:03:49;;;;;;;3.42;1.05;;;9.40;71.90;;;;;;20684860;28;20489;-78
2022/02/22 19:13:49;;;;;;;3.75;1.30;;;9.30;72.00;;;;;;20714669;28;20100;-78
2022/02/22 19:23:50;;;;;;;1.10;0.70;;;9.30;72.10;;;;;;20715507;28;20121;-78
2022/02/22 19:33:51;;;;;;;2.95;0.82;;;9.30;72.20;;;;;;20697847;28;20132;-78
2022/02/22 19:43:52;;;;;;;2.03;0.97;;;9.40;72.40;;;;;;20698057;28;20074;-80
2022/02/22 19:53:53;;;;;;;2.33;0.90;;;9.40;72.50;;;;;;20713221;28;20301;-80
2022/02/22 20:03:55;;;;;;;2.72;1.02;;;9.30;72.70;;;;;;20674786;28;20433;-86
2022/02/22 20:13:57;;;;;;;2.60;0.73;;;9.40;73.00;;;;;;20694010;28;20668;-86
2022/02/22 20:23:57;;;;;;;7.07;1.05;;;9.30;73.20;;;;;;20711328;28;20088;-83
2022/02/22 20:33:59;;;;;;;3.15;1.50;;;9.40;73.60;;;;;;20725946;28;20042;-79
2022/02/22 20:44:00;;;;;;;5.63;1.42;;;9.40;74.50;;;;;;20711497;28;20033;-85
2022/02/22 20:54:02;;;;;;;3.72;0.93;;;9.30;75.70;;;;;;20718926;28;20042;-84
2022/02/22 21:04:03;;;;;;;5.63;1.10;;;9.30;76.20;;;;;;20710402;28;20128;-83
2022/02/22 21:14:04;;;;;;;2.67;1.10;;;9.30;76.20;;;;;;20708528;28;20081;-81
2022/02/22 21:24:05;;;;;;;4.70;1.00;;;9.30;75.80;;;;;;20757394;28;20042;-77
2022/02/22 21:34:06;;;;;;;5.40;0.82;;;9.30;75.20;;;;;;20721094;28;20088;-79
2022/02/22 21:44:06;;;;;;;2.42;0.90;;;9.30;74.70;;;;;;20719167;28;20030;-79
2022/02/22 21:54:07;;;;;;;1.95;0.95;;;9.30;74.30;;;;;;20662423;28;20490;-79
2022/02/22 22:04:08;;;;;;;5.65;1.48;;;9.30;74.10;;;;;;20637923;28;20030;-79
2022/02/22 22:14:08;;;;;;;7.55;1.35;;;9.40;73.90;;;;;;20636583;28;20096;-79
2022/02/22 22:24:09;;;;;;;5.40;1.33;;;9.30;73.70;;;;;;20637475;28;20445;-79
2022/02/22 22:34:10;;;;;;;10.63;2.05;;;9.30;73.60;;;;;;20652042;28;20392;-79
2022/02/22 22:44:10;;;;;;;5.80;1.65;;;9.30;73.60;;;;;;20651069;28;20027;-79
2022/02/22 22:54:11;;;;;;;4.28;1.25;;;9.30;73.50;;;;;;20634775;28;20042;-78
2022/02/22 23:04:11;;;;;;;5.38;1.45;;;9.30;73.40;;;;;;20633336;28;20081;-79
2022/02/22 23:14:13;;;;;;;8.03;1.30;;;9.30;73.40;;;;;;20633014;28;20038;-79
2022/02/22 23:24:13;;;;;;;7.63;2.45;;;9.30;73.20;;;;;;20632737;28;20800;-79
2022/02/22 23:34:14;;;;;;;4.65;1.17;;;9.20;73.10;;;;;;20615474;28;20038;-78
2022/02/22 23:44:15;;;;;;;10.70;1.88;;;9.30;73.00;;;;;;20632698;28;20085;-79
2022/02/22 23:54:17;;;;;;;4.93;1.38;;;9.30;72.90;;;;;;20613983;28;20490;-78
